createdAt,value
2017-11-17T00:03:13.545Z,11.98
2017-11-17T00:05:42.573Z,10.40
2017-11-17T00:08:13.687Z,14.02
2017-11-17T00:10:47.512Z,12.82
2017-11-17T00:13:19.394Z,10.77
2017-11-17T00:15:49.778Z,13.62
2017-11-17T00:18:21.174Z,12.23
2017-11-17T00:20:50.328Z,12.43
2017-11-17T00:23:23.200Z,12.90
2017-11-17T00:25:56.828Z,13.43
2017-11-17T00:28:26.562Z,11.07
2017-11-17T00:30:54.107Z,12.40
2017-11-17T00:33:21.992Z,14.82
2017-11-17T00:35:49.539Z,11.93
2017-11-17T00:38:17.035Z,13.23
2017-11-17T00:40:44.545Z,11.27
2017-11-17T00:43:14.349Z,12.25
2017-11-17T00:45:42.236Z,11.65
2017-11-17T00:48:10.113Z,11.90
2017-11-17T00:50:37.619Z,12.07
2017-11-17T00:53:05.139Z,11.18
2017-11-17T00:55:32.670Z,13.32
2017-11-17T00:58:00.164Z,14.10
2017-11-17T01:00:27.689Z,13.65
2017-11-17T01:02:55.571Z,15.73
2017-11-17T01:05:23.228Z,12.77
2017-11-17T01:07:50.787Z,13.00
2017-11-17T01:10:19.191Z,11.77
2017-11-17T01:12:46.696Z,16.90
2017-11-17T01:15:14.249Z,17.37
2017-11-17T01:17:41.751Z,12.73
2017-11-17T01:20:09.283Z,13.18
2017-11-17T01:22:37.176Z,13.48
2017-11-17T01:25:04.691Z,12.25
2017-11-17T01:27:33.153Z,11.95
2017-11-17T01:30:00.656Z,12.75
2017-11-17T01:32:28.144Z,14.55
2017-11-17T01:34:55.672Z,13.30
2017-11-17T01:37:23.589Z,14.07
2017-11-17T01:39:51.068Z,14.50
2017-11-17T01:42:18.573Z,11.55
2017-11-17T01:44:46.069Z,13.20
2017-11-17T01:47:15.466Z,13.73
2017-11-17T01:49:42.982Z,14.07
2017-11-17T01:52:10.863Z,14.30
2017-11-17T01:54:38.375Z,13.70
2017-11-17T01:57:05.863Z,15.10
2017-11-17T01:59:33.769Z,15.18
2017-11-17T02:02:02.212Z,12.23
2017-11-17T02:04:30.109Z,12.98
2017-11-17T02:06:57.615Z,12.88
2017-11-17T02:09:26.073Z,12.48
2017-11-17T02:11:53.592Z,13.93
2017-11-17T02:14:22.073Z,13.68
2017-11-17T02:16:49.953Z,13.07
2017-11-17T02:19:17.461Z,12.10
2017-11-17T02:21:44.982Z,12.00
2017-11-17T02:24:12.464Z,14.02
2017-11-17T02:26:39.966Z,13.62
2017-11-17T02:29:07.492Z,14.10
2017-11-17T02:31:35.414Z,13.88
2017-11-17T02:34:02.928Z,12.60
2017-11-17T02:36:31.792Z,12.85
2017-11-17T02:39:00.329Z,11.43
2017-11-17T02:41:28.032Z,12.95
2017-11-17T02:43:55.543Z,14.73
2017-11-17T02:46:23.060Z,14.48
2017-11-17T02:48:50.582Z,12.27
2017-11-17T02:51:18.551Z,13.20
2017-11-17T02:53:46.048Z,12.35
2017-11-17T02:56:13.581Z,11.63
2017-11-17T02:58:41.071Z,11.90
2017-11-17T03:01:08.580Z,13.02
2017-11-17T03:03:36.065Z,14.02
2017-11-17T03:06:03.581Z,12.60
2017-11-17T03:08:31.092Z,11.50
2017-11-17T03:10:58.585Z,12.13
2017-11-17T03:13:26.484Z,15.65
2017-11-17T03:15:53.969Z,12.43
2017-11-17T03:18:21.487Z,15.70
2017-11-17T03:20:48.984Z,14.30
2017-11-17T03:23:16.519Z,15.90
2017-11-17T03:25:44.020Z,13.75
2017-11-17T03:28:11.519Z,15.00
2017-11-17T03:30:39.032Z,15.82
2017-11-17T03:33:06.525Z,14.30
2017-11-17T03:35:34.052Z,14.73
2017-11-17T03:38:01.559Z,13.45
2017-11-17T03:40:29.045Z,13.32
2017-11-17T03:42:56.568Z,13.80
2017-11-17T03:45:24.068Z,15.45
2017-11-17T03:47:51.583Z,14.50
2017-11-17T03:50:19.068Z,14.75
2017-11-17T03:52:46.569Z,15.77
2017-11-17T03:55:14.471Z,11.70
2017-11-17T03:57:42.028Z,12.75
2017-11-17T04:00:09.533Z,16.55
2017-11-17T04:02:37.031Z,13.68
2017-11-17T04:05:04.912Z,16.42
2017-11-17T04:07:32.431Z,14.43
2017-11-17T04:10:00.313Z,15.13
2017-11-17T04:12:28.196Z,13.93
2017-11-17T04:14:57.717Z,14.18
2017-11-17T04:17:25.195Z,17.48
2017-11-17T04:19:52.732Z,17.00
2017-11-17T04:22:20.230Z,14.52
2017-11-17T04:24:47.730Z,15.68
2017-11-17T04:27:15.248Z,14.90
2017-11-17T04:29:42.776Z,13.52
2017-11-17T04:32:10.282Z,15.70
2017-11-17T04:34:38.182Z,14.52
2017-11-17T04:37:05.671Z,16.37
2017-11-17T04:39:35.144Z,14.60
2017-11-17T04:42:02.629Z,15.48
2017-11-17T04:44:30.109Z,16.73
2017-11-17T04:46:57.613Z,15.68
2017-11-17T04:49:25.108Z,13.85
2017-11-17T04:51:52.635Z,13.32
2017-11-17T04:54:20.159Z,15.52
2017-11-17T04:56:48.088Z,14.77
2017-11-17T04:59:15.598Z,12.23
2017-11-17T05:01:43.499Z,17.35
2017-11-17T05:04:11.018Z,15.15
2017-11-17T05:06:38.917Z,13.85
2017-11-17T05:09:08.418Z,13.57
2017-11-17T05:11:35.921Z,17.55
2017-11-17T05:14:03.405Z,15.35
2017-11-17T05:16:31.319Z,16.45
2017-11-17T05:18:59.202Z,13.20
2017-11-17T05:21:26.745Z,11.95
2017-11-17T05:23:55.214Z,14.70
2017-11-17T05:26:22.760Z,15.10
2017-11-17T05:28:50.466Z,17.02
2017-11-17T05:31:17.955Z,13.93
2017-11-17T05:33:45.937Z,16.37
2017-11-17T05:36:13.820Z,12.43
2017-11-17T05:38:41.325Z,15.18
2017-11-17T05:41:08.836Z,14.20
2017-11-17T05:43:38.296Z,15.00
2017-11-17T05:46:06.720Z,14.45
2017-11-17T05:48:34.228Z,14.35
2017-11-17T05:51:02.685Z,17.00
2017-11-17T05:53:31.128Z,14.65
2017-11-17T05:55:59.034Z,16.33
2017-11-17T05:58:27.522Z,15.60
2017-11-17T06:00:55.039Z,13.70
2017-11-17T06:03:22.548Z,17.70
2017-11-17T06:05:50.051Z,14.52
2017-11-17T06:08:18.285Z,13.70
2017-11-17T06:10:45.797Z,14.93
2017-11-17T06:13:13.279Z,14.77
2017-11-17T06:15:41.707Z,12.48
2017-11-17T06:18:10.589Z,14.73
2017-11-17T06:20:38.076Z,13.27
2017-11-17T06:23:05.581Z,13.38
2017-11-17T06:25:33.069Z,15.48
2017-11-17T06:28:00.981Z,11.48
2017-11-17T06:30:29.404Z,14.20
2017-11-17T06:32:56.948Z,12.43
2017-11-17T06:35:24.439Z,13.60
2017-11-17T06:37:52.315Z,14.30
2017-11-17T06:40:20.212Z,14.43
2017-11-17T06:42:48.858Z,13.80
2017-11-17T06:45:18.339Z,11.50
2017-11-17T06:47:45.863Z,13.98
2017-11-17T06:50:13.375Z,12.45
2017-11-17T06:52:41.317Z,15.25
2017-11-17T06:55:08.807Z,13.73
2017-11-17T06:57:36.689Z,18.48
2017-11-17T07:00:04.192Z,15.52
2017-11-17T07:02:31.694Z,12.98
2017-11-17T07:04:59.585Z,12.70
2017-11-17T07:07:27.086Z,16.73
2017-11-17T07:09:55.029Z,14.65
2017-11-17T07:12:22.512Z,14.68
2017-11-17T07:14:50.965Z,14.13
2017-11-17T07:17:18.500Z,11.45
2017-11-17T07:19:45.984Z,13.30
2017-11-17T07:22:13.493Z,15.40
2017-11-17T07:24:41.390Z,13.62
2017-11-17T07:27:09.285Z,15.63
2017-11-17T07:29:36.785Z,16.67
2017-11-17T07:32:04.692Z,13.18
2017-11-17T07:34:32.175Z,14.52
2017-11-17T07:36:59.669Z,17.00
2017-11-17T07:39:27.606Z,13.90
2017-11-17T07:41:55.104Z,13.00
2017-11-17T07:44:23.009Z,15.48
2017-11-17T07:46:51.452Z,16.17
2017-11-17T07:49:19.357Z,15.30
2017-11-17T07:51:46.861Z,15.10
2017-11-17T07:54:14.772Z,13.98
2017-11-17T07:56:42.272Z,15.05
2017-11-17T07:59:09.769Z,14.73
2017-11-17T08:01:37.760Z,13.30
2017-11-17T08:04:05.256Z,16.12
2017-11-17T08:06:32.785Z,15.57
2017-11-17T08:09:01.241Z,14.93
2017-11-17T08:11:28.750Z,15.20
2017-11-17T08:13:56.238Z,15.38
2017-11-17T08:16:24.156Z,17.48
2017-11-17T08:18:51.764Z,14.75
2017-11-17T08:21:25.818Z,16.50
2017-11-17T08:23:55.232Z,15.43
2017-11-17T08:26:22.748Z,13.82
2017-11-17T08:28:50.648Z,14.65
2017-11-17T08:31:19.079Z,14.45
2017-11-17T08:33:46.982Z,15.68
2017-11-17T08:36:14.477Z,17.02
2017-11-17T08:38:42.936Z,14.63
2017-11-17T08:41:10.440Z,15.88
2017-11-17T08:43:38.333Z,16.02
2017-11-17T08:46:05.887Z,15.80
2017-11-17T08:48:33.770Z,15.10
2017-11-17T08:51:02.257Z,15.48
2017-11-17T08:53:29.737Z,15.05
2017-11-17T08:55:57.239Z,13.90
2017-11-17T08:58:25.139Z,16.25
2017-11-17T09:00:52.634Z,15.57
2017-11-17T09:03:20.137Z,15.65
2017-11-17T09:05:48.956Z,15.82
2017-11-17T09:08:16.443Z,14.68
2017-11-17T09:10:43.948Z,16.02
2017-11-17T09:13:11.428Z,16.60
2017-11-17T09:15:38.944Z,15.65
2017-11-17T09:18:06.834Z,16.75
2017-11-17T09:20:34.341Z,14.77
2017-11-17T09:23:01.829Z,13.48
2017-11-17T09:25:29.725Z,14.85
2017-11-17T09:27:59.221Z,14.43
2017-11-17T09:30:26.716Z,15.68
2017-11-17T09:32:54.234Z,16.00
2017-11-17T09:35:21.732Z,16.95
2017-11-17T09:37:51.177Z,15.20
2017-11-17T09:40:19.064Z,15.68
2017-11-17T09:42:47.595Z,15.30
2017-11-17T09:45:15.080Z,17.75
2017-11-17T09:47:43.032Z,17.30
2017-11-17T09:50:10.572Z,16.08
2017-11-17T09:52:38.057Z,18.08
2017-11-17T09:55:05.565Z,15.57
2017-11-17T09:57:33.059Z,15.82
2017-11-17T10:00:00.541Z,16.25
2017-11-17T10:02:28.450Z,14.90
2017-11-17T10:04:55.979Z,20.40
2017-11-17T10:07:23.878Z,15.55
2017-11-17T10:09:51.356Z,16.23
2017-11-17T10:12:18.852Z,16.05
2017-11-17T10:14:46.757Z,16.33
2017-11-17T10:17:14.265Z,13.00
2017-11-17T10:19:42.179Z,15.93
2017-11-17T10:22:10.427Z,16.85
2017-11-17T10:24:38.308Z,15.27
2017-11-17T10:27:05.816Z,14.40
2017-11-17T10:29:33.329Z,15.90
2017-11-17T10:32:00.835Z,16.65
2017-11-17T10:34:28.319Z,14.85
2017-11-17T10:36:56.222Z,15.80
2017-11-17T10:39:25.743Z,14.65
2017-11-17T10:41:53.273Z,17.35
2017-11-17T10:44:20.793Z,15.18
2017-11-17T10:46:48.720Z,14.38
2017-11-17T10:49:16.222Z,16.80
2017-11-17T10:51:43.726Z,16.35
2017-11-17T10:54:11.232Z,14.45
2017-11-17T10:56:38.730Z,16.67
2017-11-17T10:59:08.711Z,14.10
2017-11-17T11:01:36.224Z,15.73
2017-11-17T11:04:03.730Z,15.13
2017-11-17T11:06:31.720Z,17.75
2017-11-17T11:08:59.309Z,15.48
2017-11-17T11:11:32.407Z,15.55
2017-11-17T11:13:59.920Z,15.30
2017-11-17T11:16:27.818Z,19.50
2017-11-17T11:18:55.300Z,17.35
2017-11-17T11:21:22.812Z,18.70
2017-11-17T11:23:50.684Z,20.75
2017-11-17T11:26:18.586Z,22.52
2017-11-17T11:28:46.092Z,16.00
2017-11-17T11:31:14.909Z,18.45
2017-11-17T11:33:42.417Z,17.73
2017-11-17T11:36:09.949Z,19.10
2017-11-17T11:38:37.485Z,15.07
2017-11-17T11:41:04.986Z,17.58
2017-11-17T11:43:32.560Z,16.60
2017-11-17T11:46:00.072Z,17.12
2017-11-17T11:48:27.681Z,17.23
2017-11-17T11:50:55.217Z,19.90
2017-11-17T11:53:22.736Z,17.95
2017-11-17T11:55:50.264Z,17.45
2017-11-17T11:58:19.001Z,17.05
2017-11-17T12:00:46.500Z,18.90
2017-11-17T12:03:13.999Z,17.35
2017-11-17T12:05:41.482Z,20.25
2017-11-17T12:08:10.960Z,20.12
2017-11-17T12:10:38.459Z,18.02
2017-11-17T12:13:05.968Z,20.80
2017-11-17T12:15:33.882Z,18.83
2017-11-17T12:18:03.367Z,17.55
2017-11-17T12:20:30.855Z,15.93
2017-11-17T12:22:58.352Z,18.40
2017-11-17T12:25:25.867Z,17.10
2017-11-17T12:27:54.424Z,15.45
2017-11-17T12:30:21.912Z,19.98
2017-11-17T12:32:49.392Z,21.17
2017-11-17T12:35:16.892Z,19.33
2017-11-17T12:37:44.386Z,17.50
2017-11-17T12:40:11.913Z,20.37
2017-11-17T12:42:39.412Z,18.58
2017-11-17T12:45:06.933Z,18.00
2017-11-17T12:47:34.422Z,18.77
2017-11-17T12:50:01.929Z,17.05
2017-11-17T12:52:29.424Z,19.30
2017-11-17T12:54:56.908Z,20.02
2017-11-17T12:57:24.449Z,19.20
2017-11-17T12:59:51.913Z,18.60
2017-11-17T13:02:19.540Z,19.95
2017-11-17T13:04:47.081Z,17.05
2017-11-17T13:07:14.573Z,19.80
2017-11-17T13:09:42.092Z,18.42
2017-11-17T13:12:09.582Z,19.08
2017-11-17T13:14:39.059Z,16.92
2017-11-17T13:17:06.581Z,18.50
2017-11-17T13:19:34.094Z,18.27
2017-11-17T13:22:03.598Z,16.45
2017-11-17T13:24:31.105Z,17.27
2017-11-17T13:26:58.608Z,18.90
2017-11-17T13:29:26.261Z,19.05
2017-11-17T13:31:53.831Z,19.20
2017-11-17T13:34:21.364Z,16.25
2017-11-17T13:36:50.861Z,17.65
2017-11-17T13:39:18.796Z,24.08
2017-11-17T13:41:46.285Z,19.37
2017-11-17T13:44:14.200Z,18.67
2017-11-17T13:46:41.684Z,20.42
2017-11-17T13:49:09.185Z,19.10
2017-11-17T13:51:36.673Z,19.10
2017-11-17T13:54:06.155Z,18.67
2017-11-17T13:56:33.643Z,19.02
2017-11-17T13:59:01.149Z,19.12
2017-11-17T14:01:29.041Z,19.98
2017-11-17T14:03:56.555Z,19.20
2017-11-17T14:06:26.023Z,19.87
2017-11-17T14:08:53.511Z,18.20
2017-11-17T14:11:21.003Z,20.37
2017-11-17T14:13:48.876Z,19.25
2017-11-17T14:16:16.782Z,19.80
2017-11-17T14:18:44.818Z,18.62
2017-11-17T14:21:14.244Z,18.92
2017-11-17T14:23:41.791Z,20.12
2017-11-17T14:26:09.363Z,21.00
2017-11-17T14:28:36.852Z,17.95
2017-11-17T14:31:05.289Z,19.42
2017-11-17T14:33:32.825Z,20.58
2017-11-17T14:36:00.802Z,17.98
2017-11-17T14:38:29.416Z,20.75
2017-11-17T14:40:56.899Z,17.80
2017-11-17T14:43:24.388Z,19.58
2017-11-17T14:45:52.294Z,21.73
2017-11-17T14:48:19.776Z,18.37
2017-11-17T14:50:47.284Z,19.02
2017-11-17T14:53:14.774Z,18.40
2017-11-17T14:55:42.269Z,21.73
2017-11-17T14:58:09.853Z,16.85
2017-11-17T15:00:38.713Z,20.50
2017-11-17T15:03:06.212Z,16.52
2017-11-17T15:05:33.725Z,16.73
2017-11-17T15:08:01.221Z,18.70
2017-11-17T15:10:29.127Z,18.65
2017-11-17T15:12:56.637Z,19.80
2017-11-17T15:15:24.156Z,18.67
2017-11-17T15:17:51.645Z,17.40
2017-11-17T15:20:19.555Z,17.62
2017-11-17T15:22:47.096Z,17.02
2017-11-17T15:25:14.604Z,15.30
2017-11-17T15:27:42.094Z,16.98
2017-11-17T15:30:10.044Z,17.52
2017-11-17T15:32:37.532Z,14.52
2017-11-17T15:35:05.454Z,19.52
2017-11-17T15:37:32.942Z,19.90
2017-11-17T15:40:00.858Z,16.40
2017-11-17T15:42:28.395Z,18.37
2017-11-17T15:44:55.892Z,17.58
2017-11-17T15:47:23.403Z,17.30
2017-11-17T15:49:51.287Z,19.30
2017-11-17T15:52:19.844Z,18.62
2017-11-17T15:54:47.717Z,18.27
2017-11-17T15:57:15.673Z,17.95
2017-11-17T15:59:43.539Z,17.52
2017-11-17T16:02:11.432Z,17.17
2017-11-17T16:04:38.971Z,20.23
2017-11-17T16:07:06.860Z,20.95
2017-11-17T16:09:34.365Z,19.52
2017-11-17T16:12:01.862Z,18.83
2017-11-17T16:14:29.827Z,19.45
2017-11-17T16:16:57.768Z,18.10
2017-11-17T16:19:26.199Z,19.37
2017-11-17T16:21:53.709Z,20.58
2017-11-17T16:24:21.209Z,17.90
2017-11-17T16:26:48.737Z,20.35
2017-11-17T16:29:16.675Z,20.02
2017-11-17T16:31:44.184Z,22.42
2017-11-17T16:34:11.712Z,20.70
2017-11-17T16:36:39.200Z,19.95
2017-11-17T16:39:08.107Z,19.58
2017-11-17T16:41:35.628Z,19.65
2017-11-17T16:44:03.547Z,20.10
2017-11-17T16:46:31.034Z,18.55
2017-11-17T16:48:58.537Z,22.37
2017-11-17T16:51:26.081Z,20.50
2017-11-17T16:53:53.980Z,19.48
2017-11-17T16:56:21.464Z,19.45
2017-11-17T16:58:48.951Z,20.33
2017-11-17T17:01:16.453Z,19.50
2017-11-17T17:03:43.959Z,21.15
2017-11-17T17:06:11.469Z,21.12
2017-11-17T17:08:39.054Z,19.55
2017-11-17T17:11:06.557Z,21.65
2017-11-17T17:13:35.388Z,21.90
2017-11-17T17:16:02.869Z,22.42
2017-11-17T17:18:30.375Z,21.45
2017-11-17T17:20:57.892Z,21.73
2017-11-17T17:23:25.411Z,22.80
2017-11-17T17:25:53.828Z,24.00
2017-11-17T17:28:21.376Z,22.05
2017-11-17T17:30:49.833Z,20.15
2017-11-17T17:33:17.317Z,20.90
2017-11-17T17:35:45.679Z,19.52
2017-11-17T17:38:13.167Z,21.67
2017-11-17T17:40:42.619Z,21.65
2017-11-17T17:43:10.110Z,23.90
2017-11-17T17:45:37.625Z,20.92
2017-11-17T17:48:05.134Z,22.60
2017-11-17T17:50:32.633Z,21.58
2017-11-17T17:53:00.135Z,22.15
2017-11-17T17:55:27.621Z,21.52
2017-11-17T17:57:55.135Z,26.55
2017-11-17T18:00:22.629Z,22.40
2017-11-17T18:02:50.147Z,22.05
2017-11-17T18:05:17.642Z,23.75
2017-11-17T18:07:45.228Z,18.37
2017-11-17T18:10:13.217Z,24.08
2017-11-17T18:12:40.717Z,22.85
2017-11-17T18:15:08.245Z,19.80
2017-11-17T18:17:35.751Z,20.08
2017-11-17T18:20:03.345Z,21.95
2017-11-17T18:22:31.241Z,28.52
2017-11-17T18:24:58.760Z,25.90
2017-11-17T18:27:26.662Z,24.87
2017-11-17T18:29:54.229Z,21.58
2017-11-17T18:32:21.798Z,24.73
2017-11-17T18:34:49.268Z,22.52
2017-11-17T18:37:16.808Z,24.87
2017-11-17T18:39:44.309Z,22.37
2017-11-17T18:42:12.229Z,23.42
2017-11-17T18:44:40.653Z,22.92
2017-11-17T18:47:09.140Z,23.17
2017-11-17T18:49:36.625Z,21.85
2017-11-17T18:52:04.117Z,23.20
2017-11-17T18:54:33.736Z,22.67
2017-11-17T18:57:01.229Z,23.52
2017-11-17T18:59:29.143Z,18.83
2017-11-17T19:01:56.637Z,20.50
2017-11-17T19:04:24.187Z,23.58
2017-11-17T19:06:51.737Z,22.67
2017-11-17T19:09:20.159Z,22.37
2017-11-17T19:11:47.652Z,22.87
2017-11-17T19:14:15.185Z,22.17
2017-11-17T19:16:43.151Z,23.50
2017-11-17T19:19:10.604Z,21.87
2017-11-17T19:21:38.495Z,22.52
2017-11-17T19:24:07.972Z,21.95
2017-11-17T19:26:35.873Z,22.27
2017-11-17T19:29:03.359Z,18.95
2017-11-17T19:31:30.858Z,21.83
2017-11-17T19:33:58.787Z,23.27
2017-11-17T19:36:26.269Z,22.90
2017-11-17T19:38:55.757Z,20.00
2017-11-17T19:41:25.172Z,20.83
2017-11-17T19:43:52.673Z,19.87
2017-11-17T19:46:22.176Z,21.52
2017-11-17T19:48:49.691Z,20.73
2017-11-17T19:51:17.173Z,21.83
2017-11-17T19:53:45.089Z,22.20
2017-11-17T19:56:12.600Z,23.02
2017-11-17T19:58:40.124Z,22.55
2017-11-17T20:01:07.637Z,21.23
2017-11-17T20:03:35.120Z,20.58
2017-11-17T20:06:02.622Z,23.55
2017-11-17T20:08:30.503Z,20.33
2017-11-17T20:10:58.408Z,21.80
2017-11-17T20:13:25.921Z,19.90
2017-11-17T20:15:53.797Z,19.48
2017-11-17T20:18:21.304Z,21.05
2017-11-17T20:20:48.812Z,17.95
2017-11-17T20:23:16.720Z,20.70
2017-11-17T20:25:44.204Z,21.12
2017-11-17T20:28:11.747Z,20.20
2017-11-17T20:30:39.241Z,22.90
2017-11-17T20:33:08.700Z,23.50
2017-11-17T20:35:36.188Z,21.20
2017-11-17T20:38:08.063Z,18.05
2017-11-17T20:40:38.226Z,22.73
2017-11-17T20:43:06.864Z,22.85
2017-11-17T20:45:37.292Z,20.85
2017-11-17T20:48:04.776Z,23.17
2017-11-17T20:50:33.234Z,21.85
2017-11-17T20:53:02.943Z,20.60
2017-11-17T20:55:33.001Z,23.55
2017-11-17T20:58:02.057Z,22.73
2017-11-17T21:00:31.897Z,22.48
2017-11-17T21:02:59.815Z,24.23
2017-11-17T21:05:27.377Z,21.25
2017-11-17T21:07:54.917Z,24.08
2017-11-17T21:10:22.426Z,23.87
2017-11-17T21:12:50.337Z,19.90
2017-11-17T21:15:17.877Z,20.48
2017-11-17T21:17:47.400Z,21.33
2017-11-17T21:20:14.908Z,20.73
2017-11-17T21:22:43.730Z,17.67
2017-11-17T21:25:11.254Z,19.55
2017-11-17T21:27:39.175Z,20.17
2017-11-17T21:30:06.661Z,22.02
2017-11-17T21:32:34.159Z,25.33
2017-11-17T21:35:01.653Z,21.37
2017-11-17T21:37:29.141Z,22.37
2017-11-17T21:39:56.651Z,20.98
2017-11-17T21:42:24.154Z,23.38
2017-11-17T21:44:51.681Z,19.95
2017-11-17T21:47:19.196Z,21.50
2017-11-17T21:49:48.073Z,21.48
2017-11-17T21:52:15.558Z,22.00
2017-11-17T21:54:43.057Z,21.00
2017-11-17T21:57:10.571Z,22.23
2017-11-17T21:59:39.273Z,23.12
2017-11-17T22:02:06.799Z,21.83
2017-11-17T22:04:34.680Z,21.75
2017-11-17T22:07:03.000Z,19.87
2017-11-17T22:09:30.511Z,20.90
2017-11-17T22:11:58.405Z,19.17
2017-11-17T22:14:27.941Z,20.75
2017-11-17T22:16:55.474Z,19.02
2017-11-17T22:19:22.976Z,20.23
2017-11-17T22:21:50.492Z,21.02
2017-11-17T22:24:18.465Z,17.40
2017-11-17T22:26:46.010Z,19.58
2017-11-17T22:29:13.525Z,24.02
2017-11-17T22:31:41.970Z,22.00
2017-11-17T22:34:09.521Z,21.42
2017-11-17T22:36:37.040Z,22.90
2017-11-17T22:39:04.961Z,22.75
2017-11-17T22:41:32.463Z,21.08
2017-11-17T22:44:00.377Z,19.92
2017-11-17T22:46:27.903Z,24.08
2017-11-17T22:48:55.413Z,22.90
2017-11-17T22:51:22.943Z,22.33
2017-11-17T22:53:50.467Z,19.40
2017-11-17T22:56:18.355Z,23.50
2017-11-17T22:58:45.861Z,20.83
2017-11-17T23:01:13.400Z,21.90
2017-11-17T23:03:40.900Z,21.60
2017-11-17T23:06:08.432Z,22.27
2017-11-17T23:08:37.906Z,22.62
2017-11-17T23:11:05.415Z,22.40
2017-11-17T23:13:32.953Z,18.33
2017-11-17T23:16:00.477Z,25.08
2017-11-17T23:18:27.978Z,20.67
2017-11-17T23:20:55.501Z,24.90
2017-11-17T23:23:23.694Z,21.35
2017-11-17T23:25:51.199Z,22.40
2017-11-17T23:28:19.266Z,20.25
2017-11-17T23:30:46.797Z,20.70
2017-11-17T23:33:14.292Z,20.17
2017-11-17T23:35:42.184Z,21.40
2017-11-17T23:38:09.936Z,19.20
2017-11-17T23:40:37.477Z,20.58
2017-11-17T23:43:05.360Z,19.77
2017-11-17T23:45:32.869Z,22.48
2017-11-17T23:48:00.370Z,20.23
2017-11-17T23:50:28.427Z,18.92
2017-11-17T23:52:58.382Z,22.65
2017-11-17T23:55:25.920Z,18.60
2017-11-17T23:57:53.475Z,19.85
